Terminal Aerodrome Forecast
Issued by NWS Jackson, MS

Home | Current Version | Previous Version | Text Only | Print | Product List | Glossary On
Versions: 1 2 3 4 5 6 7 8 9 10 11 12
000
FTUS44 KJAN 031741
TAFMEI
TAF
KMEI 031741Z 0318/0418 18005KT P6SM SCT060
     FM040000 17005KT P6SM FEW035
     FM041000 VRB03KT 5SM BR FEW010
     FM041500 13008KT P6SM SCT050=

USA.gov is the U.S. government's official web portal to all federal, state and local government web resources and services.